Time;durP1;ratioP1;P1;durP2;ratioP2;P2;SDS_P1;SDS_P2;PMS_P1;PMS_P2;Temp;Humidity;BMP_temperature;BMP_pressure;BME280_temperature;BME280_humidity;BME280_pressure;Samples;Min_cycle;Max_cycle;Signal;HPM_P1;HPM_P2
2022/08/20 00:00:13;;;;;;;;;;;19.30;99.90;;;;;;5069054;28;20278;-80
2022/08/20 00:02:46;;;;;;;;;;;19.30;99.90;;;;;;5068884;28;19932;-80
2022/08/20 00:05:12;;;;;;;;;;;19.30;99.90;;;;;;5054467;28;19931;-80
2022/08/20 00:07:38;;;;;;;;;;;19.30;99.90;;;;;;5069079;28;20732;-80
2022/08/20 00:10:05;;;;;;;;;;;19.30;99.90;;;;;;5069174;28;19978;-80
2022/08/20 00:12:31;;;;;;;;;;;19.30;99.90;;;;;;5067222;28;19932;-80
2022/08/20 00:14:56;;;;;;;;;;;19.30;99.90;;;;;;5069688;28;19924;-80
2022/08/20 00:17:22;;;;;;;;;;;19.30;99.90;;;;;;5051775;28;20398;-80
2022/08/20 00:19:48;;;;;;;;;;;19.30;99.90;;;;;;5034612;28;20023;-80
2022/08/20 00:22:13;;;;;;;;;;;19.30;99.90;;;;;;5051124;28;19996;-80
2022/08/20 00:24:39;;;;;;;;;;;19.20;99.90;;;;;;5068735;28;20359;-80
2022/08/20 00:27:04;;;;;;;;;;;19.20;99.90;;;;;;5069209;28;19925;-80
2022/08/20 00:29:30;;;;;;;;;;;19.20;99.90;;;;;;5049707;28;19930;-80
2022/08/20 00:31:55;;;;;;;;;;;19.20;99.90;;;;;;5068993;28;19936;-80
2022/08/20 00:34:21;;;;;;;;;;;19.20;99.90;;;;;;5069133;28;19978;-80
2022/08/20 00:36:46;;;;;;;;;;;19.10;99.90;;;;;;5068443;28;20019;-80
2022/08/20 00:39:12;;;;;;;;;;;19.10;99.90;;;;;;5068777;28;20011;-80
2022/08/20 00:41:38;;;;;;;;;;;19.10;99.90;;;;;;5068876;28;20019;-80
2022/08/20 00:44:06;;;;;;;;;;;19.10;99.90;;;;;;5068083;28;20279;-80
2022/08/20 00:46:32;;;;;;;;;;;19.10;99.90;;;;;;5067781;28;19925;-80
2022/08/20 00:48:58;;;;;;;;;;;19.10;99.90;;;;;;5051387;28;19924;-80
2022/08/20 00:51:41;;;;;;;;;;;19.00;99.90;;;;;;5051162;28;20461;-80
2022/08/20 00:54:12;;;;;;;;;;;19.00;99.90;;;;;;5041097;28;19924;-80
2022/08/20 00:56:38;;;;;;;;;;;19.00;99.90;;;;;;5068399;28;19928;-80
2022/08/20 00:59:10;;;;;;;;;;;19.00;99.90;;;;;;5067242;28;19920;-80
2022/08/20 01:01:37;;;;;;;;;;;19.00;99.90;;;;;;5048634;28;20012;-80
2022/08/20 01:04:04;;;;;;;;;;;19.00;99.90;;;;;;5031040;28;20299;-80
2022/08/20 01:06:29;;;;;;;;;;;18.90;99.90;;;;;;5062192;28;19925;-80
2022/08/20 01:08:55;;;;;;;;;;;18.90;99.90;;;;;;5068487;28;19932;-80
2022/08/20 01:11:28;;;;;;;;;;;18.90;99.90;;;;;;5071393;22;19925;-80
2022/08/20 01:13:56;;;;;;;;;;;18.90;99.90;;;;;;5029346;28;19933;-80
2022/08/20 01:16:25;;;;;;;;;;;18.90;99.90;;;;;;5047458;28;20335;-80
2022/08/20 01:18:51;;;;;;;;;;;18.90;99.90;;;;;;5048447;28;19925;-80
2022/08/20 01:21:23;;;;;;;;;;;18.80;99.90;;;;;;5048197;28;19925;-80
2022/08/20 01:24:05;;;;;;;;;;;18.80;99.90;;;;;;5048336;28;19936;-81
2022/08/20 01:26:36;;;;;;;;;;;18.80;99.90;;;;;;5030012;28;19944;-81
2022/08/20 01:29:07;;;;;;;;;;;18.80;99.90;;;;;;5047479;28;19970;-80
2022/08/20 01:31:34;;;;;;;;;;;18.80;99.90;;;;;;5047875;28;19931;-80
2022/08/20 01:34:00;;;;;;;;;;;18.80;99.90;;;;;;5047791;28;19934;-80
2022/08/20 01:36:31;;;;;;;;;;;18.80;99.90;;;;;;5048447;28;20390;-80
2022/08/20 01:38:58;;;;;;;;;;;18.80;99.90;;;;;;5046725;28;20011;-80
2022/08/20 01:41:46;;;;;;;;;;;18.80;99.90;;;;;;5046796;28;19928;-80
2022/08/20 01:44:12;;;;;;;;;;;18.80;99.90;;;;;;5009022;28;20314;-80
2022/08/20 01:46:39;;;;;;;;;;;18.80;99.90;;;;;;5047849;28;20379;-80
2022/08/20 01:49:07;;;;;;;;;;;18.80;99.90;;;;;;5047806;28;20367;-80
2022/08/20 01:51:33;;;;;;;;;;;18.70;99.90;;;;;;5047319;28;19978;-80
2022/08/20 01:53:58;;;;;;;;;;;18.70;99.90;;;;;;5047817;28;19928;-81
2022/08/20 01:56:26;;;;;;;;;;;18.70;99.90;;;;;;5047885;28;19925;-80
2022/08/20 01:58:53;;;;;;;;;;;18.70;99.90;;;;;;5046006;28;19924;-80
2022/08/20 02:01:20;;;;;;;;;;;18.70;99.90;;;;;;5030885;28;19929;-80
2022/08/20 02:03:46;;;;;;;;;;;18.70;99.90;;;;;;5047085;28;19931;-80
2022/08/20 02:06:12;;;;;;;;;;;18.70;99.90;;;;;;5047461;28;19925;-80
2022/08/20 02:08:37;;;;;;;;;;;18.70;99.90;;;;;;5046032;28;19938;-80
2022/08/20 02:11:03;;;;;;;;;;;18.60;99.90;;;;;;5047120;28;19973;-81
2022/08/20 02:13:28;;;;;;;;;;;18.60;99.90;;;;;;5045039;28;20408;-81
2022/08/20 02:15:54;;;;;;;;;;;18.60;99.90;;;;;;5047555;28;19929;-80
2022/08/20 02:18:19;;;;;;;;;;;18.70;99.90;;;;;;5047311;28;19925;-80
2022/08/20 02:20:45;;;;;;;;;;;18.60;99.90;;;;;;5046973;28;20375;-80
2022/08/20 02:23:11;;;;;;;;;;;18.60;99.90;;;;;;5047551;28;20404;-80
2022/08/20 02:25:39;;;;;;;;;;;18.60;99.90;;;;;;5047230;28;19932;-80
2022/08/20 02:28:07;;;;;;;;;;;18.50;99.90;;;;;;5046148;28;19925;-80
2022/08/20 02:30:33;;;;;;;;;;;18.50;99.90;;;;;;5046969;28;19925;-80
2022/08/20 02:33:00;;;;;;;;;;;18.40;99.90;;;;;;5046798;28;19920;-80
2022/08/20 02:35:25;;;;;;;;;;;18.40;99.90;;;;;;5047888;28;20284;-80
2022/08/20 02:37:51;;;;;;;;;;;18.40;99.90;;;;;;5045768;28;19920;-80
2022/08/20 02:40:18;;;;;;;;;;;18.30;99.90;;;;;;5046910;28;20394;-80
2022/08/20 02:42:43;;;;;;;;;;;18.30;99.90;;;;;;5045893;28;20284;-80
2022/08/20 02:45:13;;;;;;;;;;;18.30;99.90;;;;;;5047059;28;19927;-80
2022/08/20 02:47:39;;;;;;;;;;;18.20;99.90;;;;;;5046448;28;20371;-80
2022/08/20 02:50:06;;;;;;;;;;;18.20;99.90;;;;;;5046607;28;19960;-80
2022/08/20 02:52:31;;;;;;;;;;;18.20;99.90;;;;;;5046420;28;19978;-81
2022/08/20 02:54:57;;;;;;;;;;;18.20;99.90;;;;;;5047731;28;19925;-80
2022/08/20 02:57:22;;;;;;;;;;;18.20;99.90;;;;;;5045670;28;20411;-80
2022/08/20 02:59:51;;;;;;;;;;;18.10;99.90;;;;;;5046705;28;19933;-80
2022/08/20 03:02:17;;;;;;;;;;;18.10;99.90;;;;;;5046383;28;19924;-80
2022/08/20 03:04:43;;;;;;;;;;;18.10;99.90;;;;;;5046783;28;19996;-80
2022/08/20 03:07:11;;;;;;;;;;;18.10;99.90;;;;;;5046940;28;19925;-80
2022/08/20 03:09:37;;;;;;;;;;;18.10;99.90;;;;;;5046579;28;20382;-80
2022/08/20 03:12:03;;;;;;;;;;;18.00;99.90;;;;;;5049292;28;19924;-80
2022/08/20 03:14:29;;;;;;;;;;;18.00;99.90;;;;;;5050133;28;20272;-81
2022/08/20 03:16:54;;;;;;;;;;;18.00;99.90;;;;;;5051328;28;19928;-80
2022/08/20 03:19:21;;;;;;;;;;;18.00;99.90;;;;;;5050514;28;19925;-80
2022/08/20 03:21:47;;;;;;;;;;;17.90;99.90;;;;;;5048980;28;20402;-80
2022/08/20 03:24:13;;;;;;;;;;;17.90;99.90;;;;;;5050888;28;19931;-80
2022/08/20 03:26:38;;;;;;;;;;;17.90;99.90;;;;;;5049154;28;19928;-81
2022/08/20 03:29:04;;;;;;;;;;;17.80;99.90;;;;;;5050059;28;19929;-80
2022/08/20 03:31:29;;;;;;;;;;;17.80;99.90;;;;;;5050250;28;19931;-81
2022/08/20 03:33:55;;;;;;;;;;;17.70;99.90;;;;;;5051037;28;20374;-80
2022/08/20 03:36:21;;;;;;;;;;;17.70;99.90;;;;;;5049120;28;20029;-80
2022/08/20 03:38:47;;;;;;;;;;;17.70;99.90;;;;;;5050078;28;19925;-80
2022/08/20 03:41:12;;;;;;;;;;;17.60;99.90;;;;;;5050433;28;20013;-80
2022/08/20 03:43:39;;;;;;;;;;;17.60;99.90;;;;;;5049697;28;19958;-80
2022/08/20 03:46:05;;;;;;;;;;;17.60;99.90;;;;;;5050579;28;19924;-80
2022/08/20 03:48:30;;;;;;;;;;;17.50;99.90;;;;;;5049878;28;20379;-80
2022/08/20 03:50:59;;;;;;;;;;;17.50;99.90;;;;;;5050839;28;19999;-80
2022/08/20 03:53:25;;;;;;;;;;;17.50;99.90;;;;;;5049986;28;19929;-80
2022/08/20 03:55:54;;;;;;;;;;;17.40;99.90;;;;;;5049998;28;19925;-80
2022/08/20 03:58:19;;;;;;;;;;;17.40;99.90;;;;;;5048837;28;19925;-80
2022/08/20 04:00:49;;;;;;;;;;;17.30;99.90;;;;;;5049615;28;19950;-80
2022/08/20 04:03:15;;;;;;;;;;;17.30;99.90;;;;;;5049700;28;19925;-80
2022/08/20 04:05:41;;;;;;;;;;;17.30;99.90;;;;;;5049314;28;20046;-80
2022/08/20 04:08:08;;;;;;;;;;;17.30;99.90;;;;;;5049779;28;20009;-80
2022/08/20 04:10:34;;;;;;;;;;;17.30;99.90;;;;;;5048323;28;19925;-81
2022/08/20 04:12:59;;;;;;;;;;;17.20;99.90;;;;;;5048317;28;19947;-81
2022/08/20 04:15:25;;;;;;;;;;;17.10;99.90;;;;;;5050326;28;19968;-80
2022/08/20 04:17:54;;;;;;;;;;;17.10;99.90;;;;;;5047560;28;19928;-80
2022/08/20 04:20:22;;;;;;;;;;;17.10;99.90;;;;;;5045153;28;20022;-80
2022/08/20 04:22:49;;;;;;;;;;;17.10;99.90;;;;;;5048677;28;20036;-80
2022/08/20 04:25:14;;;;;;;;;;;17.10;99.90;;;;;;5049641;28;19925;-80
2022/08/20 04:27:40;;;;;;;;;;;17.00;99.90;;;;;;5047973;28;19925;-80
2022/08/20 04:30:07;;;;;;;;;;;17.00;99.90;;;;;;5049436;28;19933;-80
2022/08/20 04:32:35;;;;;;;;;;;16.90;99.90;;;;;;5048601;28;20445;-80
2022/08/20 04:35:06;;;;;;;;;;;16.90;99.90;;;;;;5049466;28;19928;-77
2022/08/20 04:37:32;;;;;;;;;;;16.80;99.90;;;;;;5039747;28;19932;-77
2022/08/20 04:42:45;;;;;;;;;;;16.80;99.90;;;;;;5048116;28;20363;-77
2022/08/20 04:45:10;;;;;;;;;;;16.70;99.90;;;;;;5048126;28;20011;-77
2022/08/20 04:47:36;;;;;;;;;;;16.70;99.90;;;;;;5048771;28;20036;-77
2022/08/20 04:50:02;;;;;;;;;;;16.70;99.90;;;;;;5048778;28;20394;-77
2022/08/20 04:52:27;;;;;;;;;;;16.70;99.90;;;;;;5049368;28;19959;-77
2022/08/20 04:54:56;;;;;;;;;;;16.70;99.90;;;;;;5048141;28;20501;-77
2022/08/20 04:57:22;;;;;;;;;;;16.70;99.90;;;;;;5048439;28;19925;-77
2022/08/20 04:59:49;;;;;;;;;;;16.70;99.90;;;;;;5048973;28;19933;-77
2022/08/20 05:02:17;;;;;;;;;;;16.60;99.90;;;;;;5049064;28;19951;-77
2022/08/20 05:04:42;;;;;;;;;;;16.70;99.90;;;;;;5048531;28;19924;-77
2022/08/20 05:07:09;;;;;;;;;;;16.60;99.90;;;;;;5047625;28;19924;-77
2022/08/20 05:09:35;;;;;;;;;;;16.60;99.90;;;;;;5048807;28;20027;-77
2022/08/20 05:12:00;;;;;;;;;;;16.60;99.90;;;;;;5047717;28;20016;-78
2022/08/20 05:14:26;;;;;;;;;;;16.60;99.90;;;;;;5047736;28;20271;-78
2022/08/20 05:16:56;;;;;;;;;;;16.60;99.90;;;;;;5048551;28;19971;-79
2022/08/20 05:19:21;;;;;;;;;;;16.60;99.90;;;;;;5048286;28;19925;-79
2022/08/20 05:21:47;;;;;;;;;;;16.60;99.90;;;;;;5047347;28;19932;-78
2022/08/20 05:24:13;;;;;;;;;;;16.60;99.90;;;;;;5048035;28;19977;-79
2022/08/20 05:26:38;;;;;;;;;;;16.60;99.90;;;;;;5047044;28;20019;-79
2022/08/20 05:29:05;;;;;;;;;;;16.60;99.90;;;;;;5048291;28;19925;-80
2022/08/20 05:31:32;;;;;;;;;;;16.60;99.90;;;;;;5047510;28;19929;-79
2022/08/20 05:33:57;;;;;;;;;;;16.60;99.90;;;;;;5047356;28;20437;-80
2022/08/20 05:36:23;;;;;;;;;;;16.60;99.90;;;;;;5047131;28;19925;-82
2022/08/20 05:38:49;;;;;;;;;;;16.70;99.90;;;;;;5047053;28;20286;-78
2022/08/20 05:41:14;;;;;;;;;;;16.70;99.90;;;;;;5048071;28;19931;-79
2022/08/20 05:43:40;;;;;;;;;;;16.70;99.90;;;;;;5046107;28;20357;-79
2022/08/20 05:46:05;;;;;;;;;;;16.80;99.90;;;;;;5047661;28;19925;-78
2022/08/20 05:48:34;;;;;;;;;;;16.80;99.90;;;;;;5047460;28;19924;-81
2022/08/20 05:50:59;;;;;;;;;;;16.80;99.90;;;;;;5047423;28;19925;-79
2022/08/20 05:53:25;;;;;;;;;;;16.80;99.90;;;;;;5048066;28;19932;-80
2022/08/20 05:55:51;;;;;;;;;;;16.80;99.90;;;;;;5047685;28;19928;-79
2022/08/20 05:58:20;;;;;;;;;;;16.90;99.90;;;;;;5046994;28;19928;-78
2022/08/20 06:00:46;;;;;;;;;;;16.90;99.90;;;;;;5047564;28;19964;-78
2022/08/20 06:05:56;;;;;;;;;;;17.00;99.90;;;;;;5046460;28;19925;-79
2022/08/20 06:08:21;;;;;;;;;;;17.00;99.90;;;;;;5047456;28;19978;-79
2022/08/20 06:10:47;;;;;;;;;;;17.00;99.90;;;;;;5029161;28;19970;-79
2022/08/20 06:13:12;;;;;;;;;;;17.00;99.90;;;;;;5044850;28;19960;-79
2022/08/20 06:15:38;;;;;;;;;;;17.00;99.90;;;;;;5047146;28;19928;-79
2022/08/20 06:18:07;;;;;;;;;;;17.00;99.90;;;;;;5046388;28;19932;-80
2022/08/20 06:20:33;;;;;;;;;;;17.00;99.90;;;;;;5046991;28;19939;-79
2022/08/20 06:22:59;;;;;;;;;;;17.10;99.90;;;;;;5047527;28;20012;-79
2022/08/20 06:25:24;;;;;;;;;;;17.10;99.90;;;;;;5047645;28;20062;-79
2022/08/20 06:27:50;;;;;;;;;;;17.10;99.90;;;;;;5044934;28;20310;-79
2022/08/20 06:30:16;;;;;;;;;;;17.10;99.90;;;;;;5047109;28;19924;-80
2022/08/20 06:32:41;;;;;;;;;;;17.10;99.90;;;;;;5046657;28;19924;-79
2022/08/20 06:35:08;;;;;;;;;;;17.10;99.90;;;;;;5046269;28;19924;-79
2022/08/20 06:37:35;;;;;;;;;;;17.20;99.90;;;;;;5046991;28;19917;-79
2022/08/20 06:40:03;;;;;;;;;;;17.20;99.90;;;;;;5046927;28;20291;-79
2022/08/20 06:42:29;;;;;;;;;;;17.20;99.90;;;;;;5045926;28;19931;-79
2022/08/20 06:44:55;;;;;;;;;;;17.30;99.90;;;;;;5045662;28;20267;-79
2022/08/20 06:47:20;;;;;;;;;;;17.30;99.90;;;;;;5047462;28;19978;-79
2022/08/20 06:49:47;;;;;;;;;;;17.30;99.90;;;;;;5045867;28;19978;-79
2022/08/20 06:52:16;;;;;;;;;;;17.30;99.90;;;;;;5047158;28;20015;-78
2022/08/20 06:54:42;;;;;;;;;;;17.40;99.90;;;;;;5046849;28;19925;-79
2022/08/20 06:57:07;;;;;;;;;;;17.50;99.90;;;;;;5046034;28;19932;-79
2022/08/20 06:59:33;;;;;;;;;;;17.50;99.90;;;;;;5046016;28;20318;-79
2022/08/20 07:01:58;;;;;;;;;;;17.60;99.90;;;;;;5062722;28;19925;-79
2022/08/20 07:04:25;;;;;;;;;;;17.60;99.90;;;;;;5042540;28;20023;-79
2022/08/20 07:06:51;;;;;;;;;;;17.60;99.90;;;;;;5026866;28;19929;-79
2022/08/20 07:09:20;;;;;;;;;;;17.70;99.90;;;;;;5033392;28;19933;-79
2022/08/20 07:11:47;;;;;;;;;;;17.70;99.90;;;;;;5030789;28;20383;-86
2022/08/20 07:14:13;;;;;;;;;;;17.70;99.90;;;;;;5042939;28;19986;-87
2022/08/20 07:16:38;;;;;;;;;;;17.80;99.90;;;;;;5032569;28;20371;-79
2022/08/20 07:19:05;;;;;;;;;;;17.80;99.90;;;;;;5026929;28;19925;-81
2022/08/20 07:21:31;;;;;;;;;;;17.80;99.90;;;;;;5026864;28;20264;-80
2022/08/20 07:23:56;;;;;;;;;;;17.90;99.90;;;;;;5030564;28;19925;-82
2022/08/20 07:26:25;;;;;;;;;;;17.90;99.90;;;;;;5045344;28;19925;-85
2022/08/20 07:28:50;;;;;;;;;;;18.00;99.90;;;;;;5044887;28;19925;-86
2022/08/20 07:33:59;;;;;;;;;;;18.10;99.90;;;;;;5043802;28;19966;-82
2022/08/20 07:36:25;;;;;;;;;;;18.10;99.90;;;;;;5027292;28;19929;-87
2022/08/20 07:38:51;;;;;;;;;;;18.10;99.90;;;;;;5027441;28;19921;-94
2022/08/20 07:41:17;;;;;;;;;;;18.10;99.90;;;;;;5026152;28;19926;-78
2022/08/20 07:43:46;;;;;;;;;;;18.20;99.90;;;;;;5032064;28;20005;-77
2022/08/20 07:46:13;;;;;;;;;;;18.20;99.90;;;;;;5046622;28;20012;-77
2022/08/20 07:48:40;;;;;;;;;;;18.30;99.90;;;;;;5046331;28;19973;-79
2022/08/20 07:51:07;;;;;;;;;;;18.30;99.90;;;;;;5045867;28;19968;-79
2022/08/20 07:53:34;;;;;;;;;;;18.30;99.90;;;;;;5044221;28;19925;-83
2022/08/20 07:56:02;;;;;;;;;;;18.40;99.90;;;;;;5027440;28;20019;-81
2022/08/20 07:58:28;;;;;;;;;;;18.40;99.90;;;;;;5029125;28;19943;-81
2022/08/20 08:00:54;;;;;;;;;;;18.50;99.90;;;;;;5030039;28;20002;-80
2022/08/20 08:03:19;;;;;;;;;;;18.50;99.90;;;;;;5036221;28;19924;-83
2022/08/20 08:05:47;;;;;;;;;;;18.50;99.90;;;;;;5049867;28;19925;-89
2022/08/20 08:08:14;;;;;;;;;;;18.60;99.90;;;;;;5048931;28;20039;-79
2022/08/20 08:10:41;;;;;;;;;;;18.60;99.90;;;;;;5048463;28;20287;-83
2022/08/20 08:13:08;;;;;;;;;;;18.60;99.90;;;;;;5048074;28;20012;-84
2022/08/20 08:15:36;;;;;;;;;;;18.60;99.90;;;;;;5049051;28;19978;-85
2022/08/20 08:18:07;;;;;;;;;;;18.70;99.90;;;;;;5048573;28;19976;-82
2022/08/20 08:20:39;;;;;;;;;;;18.70;99.90;;;;;;5049169;28;19925;-81
2022/08/20 08:23:05;;;;;;;;;;;18.70;99.90;;;;;;5049434;28;19924;-82
2022/08/20 08:25:32;;;;;;;;;;;18.80;99.90;;;;;;5048171;28;20326;-81
2022/08/20 08:27:59;;;;;;;;;;;18.80;99.90;;;;;;5047968;28;19925;-80
2022/08/20 08:30:25;;;;;;;;;;;18.80;99.90;;;;;;5048206;28;19931;-78
2022/08/20 08:35:48;;;;;;;;;;;18.80;99.90;;;;;;5009083;28;19932;-77
2022/08/20 08:38:15;;;;;;;;;;;18.90;99.90;;;;;;5029816;28;19925;-77
2022/08/20 08:40:41;;;;;;;;;;;19.00;99.90;;;;;;5047940;28;20282;-77
2022/08/20 08:43:07;;;;;;;;;;;19.00;99.90;;;;;;5048291;28;19925;-76
2022/08/20 08:45:37;;;;;;;;;;;19.00;99.90;;;;;;5047667;28;20295;-76
2022/08/20 08:48:03;;;;;;;;;;;19.00;99.90;;;;;;5045441;28;20550;-77
2022/08/20 08:50:30;;;;;;;;;;;19.10;99.90;;;;;;5047360;28;19931;-77
2022/08/20 08:52:58;;;;;;;;;;;19.20;99.90;;;;;;5047845;28;19920;-77
2022/08/20 08:55:24;;;;;;;;;;;19.20;99.90;;;;;;5047990;28;20050;-77
2022/08/20 08:57:52;;;;;;;;;;;19.20;99.90;;;;;;5046331;28;19921;-77
2022/08/20 09:00:20;;;;;;;;;;;19.30;99.90;;;;;;5047668;28;19931;-77
2022/08/20 09:03:04;;;;;;;;;;;19.30;99.90;;;;;;5046444;28;19928;-77
2022/08/20 09:05:33;;;;;;;;;;;19.40;99.90;;;;;;5044308;28;19925;-77
2022/08/20 09:08:00;;;;;;;;;;;19.40;99.90;;;;;;5047730;28;19931;-75
2022/08/20 09:10:25;;;;;;;;;;;19.40;99.90;;;;;;5047686;28;19964;-77
2022/08/20 09:12:51;;;;;;;;;;;19.40;99.90;;;;;;5047059;28;20351;-82
2022/08/20 09:15:16;;;;;;;;;;;19.40;99.90;;;;;;5048606;28;19925;-84
2022/08/20 09:17:42;;;;;;;;;;;19.40;99.90;;;;;;5047299;28;19948;-87
2022/08/20 09:20:09;;;;;;;;;;;19.50;99.90;;;;;;5047112;28;20375;-82
2022/08/20 09:22:34;;;;;;;;;;;19.40;99.90;;;;;;5045605;28;20002;-86
2022/08/20 09:25:02;;;;;;;;;;;19.40;99.90;;;;;;5044694;28;19967;-80
2022/08/20 09:27:28;;;;;;;;;;;19.50;99.90;;;;;;5046717;28;19982;-84
2022/08/20 09:29:53;;;;;;;;;;;19.50;99.90;;;;;;5048511;28;19925;-80
2022/08/20 09:32:21;;;;;;;;;;;19.50;99.90;;;;;;5043701;28;19931;-90
2022/08/20 09:34:47;;;;;;;;;;;19.60;99.90;;;;;;5045068;28;19948;-81
2022/08/20 09:37:13;;;;;;;;;;;19.70;99.90;;;;;;5045424;28;20421;-83
2022/08/20 09:39:39;;;;;;;;;;;19.70;99.90;;;;;;5042712;28;20020;-92
2022/08/20 09:42:08;;;;;;;;;;;19.80;99.90;;;;;;5039520;28;20154;-79
2022/08/20 09:44:33;;;;;;;;;;;19.80;99.90;;;;;;5022037;28;19963;-82
2022/08/20 09:46:59;;;;;;;;;;;19.80;99.90;;;;;;5040572;28;19976;-90
2022/08/20 09:49:24;;;;;;;;;;;19.80;99.90;;;;;;5041772;28;19925;-80
2022/08/20 09:51:50;;;;;;;;;;;19.70;99.90;;;;;;5044775;28;19932;-80
2022/08/20 09:54:15;;;;;;;;;;;19.80;99.90;;;;;;5047982;28;20004;-79
2022/08/20 09:56:41;;;;;;;;;;;19.80;99.90;;;;;;5046215;28;19925;-79
2022/08/20 09:59:06;;;;;;;;;;;19.80;99.90;;;;;;5047674;28;19929;-79
2022/08/20 10:01:32;;;;;;;;;;;19.80;99.90;;;;;;5041421;28;19995;-80
2022/08/20 10:03:57;;;;;;;;;;;19.80;99.90;;;;;;5046767;28;19929;-80
2022/08/20 10:06:23;;;;;;;;;;;19.80;99.90;;;;;;5047307;28;19928;-79
2022/08/20 10:08:48;;;;;;;;;;;19.80;99.90;;;;;;5046313;28;19929;-79
2022/08/20 10:11:15;;;;;;;;;;;20.00;99.90;;;;;;5027225;28;19951;-79
2022/08/20 10:13:40;;;;;;;;;;;20.00;99.90;;;;;;5046323;28;19925;-80
2022/08/20 10:16:06;;;;;;;;;;;20.10;99.90;;;;;;5044970;28;19921;-84
2022/08/20 10:18:31;;;;;;;;;;;20.10;99.90;;;;;;5044926;28;20027;-83
2022/08/20 10:20:57;;;;;;;;;;;20.20;99.90;;;;;;5046934;28;19925;-83
2022/08/20 10:23:22;;;;;;;;;;;20.20;99.90;;;;;;5046882;28;19917;-75
2022/08/20 10:25:47;;;;;;;;;;;20.30;99.90;;;;;;5044195;28;20722;-91
2022/08/20 10:28:13;;;;;;;;;;;20.30;99.90;;;;;;5047356;28;20003;-78
2022/08/20 10:30:38;;;;;;;;;;;20.30;99.90;;;;;;5047344;28;19925;-75
2022/08/20 10:33:04;;;;;;;;;;;20.30;99.90;;;;;;5047089;28;19925;-77
2022/08/20 10:35:29;;;;;;;;;;;20.30;99.90;;;;;;5046596;28;19925;-79
2022/08/20 10:37:55;;;;;;;;;;;20.30;99.90;;;;;;5047149;28;20399;-78
2022/08/20 10:40:20;;;;;;;;;;;20.30;99.90;;;;;;5045635;28;19932;-80
2022/08/20 10:42:46;;;;;;;;;;;20.30;99.90;;;;;;5046499;28;19924;-80
2022/08/20 10:45:12;;;;;;;;;;;20.30;99.90;;;;;;5046978;28;19925;-79
2022/08/20 10:47:38;;;;;;;;;;;20.20;99.90;;;;;;5046803;28;19947;-79
2022/08/20 10:50:05;;;;;;;;;;;20.30;99.90;;;;;;5046111;28;20382;-77
2022/08/20 10:52:31;;;;;;;;;;;20.30;99.90;;;;;;5046388;28;19924;-78
2022/08/20 10:54:56;;;;;;;;;;;20.30;99.90;;;;;;5047644;28;19947;-79
2022/08/20 10:57:26;;;;;;;;;;;20.30;99.90;;;;;;5046317;28;20505;-80
2022/08/20 10:59:52;;;;;;;;;;;20.30;99.90;;;;;;5046839;28;19999;-79
2022/08/20 11:02:18;;;;;;;;;;;20.30;99.90;;;;;;5045226;28;19924;-79
2022/08/20 11:04:44;;;;;;;;;;;20.30;99.90;;;;;;5046840;28;19924;-81
2022/08/20 11:07:29;;;;;;;;;;;20.30;99.90;;;;;;5046902;28;19932;-78
2022/08/20 11:09:55;;;;;;;;;;;20.30;99.90;;;;;;5063013;28;19925;-81
2022/08/20 11:12:21;;;;;;;;;;;20.30;99.90;;;;;;5045952;28;19970;-79
2022/08/20 11:14:47;;;;;;;;;;;20.40;99.90;;;;;;5046115;28;19975;-80
2022/08/20 11:17:17;;;;;;;;;;;20.40;99.90;;;;;;5046275;28;19931;-79
2022/08/20 11:19:43;;;;;;;;;;;20.40;99.90;;;;;;5046502;28;19925;-74
2022/08/20 11:22:09;;;;;;;;;;;20.40;99.90;;;;;;5046931;28;19921;-75
2022/08/20 11:24:35;;;;;;;;;;;20.40;99.90;;;;;;5046219;28;19933;-78
2022/08/20 11:27:01;;;;;;;;;;;20.40;99.90;;;;;;5045881;28;20011;-79
2022/08/20 11:29:26;;;;;;;;;;;20.40;99.90;;;;;;5047318;28;20383;-79
2022/08/20 11:31:52;;;;;;;;;;;20.40;99.90;;;;;;5047673;28;19971;-79
2022/08/20 11:34:17;;;;;;;;;;;20.40;99.90;;;;;;5049385;28;19933;-79
2022/08/20 11:36:44;;;;;;;;;;;20.40;99.90;;;;;;5049962;28;19924;-79
2022/08/20 11:39:09;;;;;;;;;;;20.50;99.90;;;;;;5050465;28;19925;-79
2022/08/20 11:41:35;;;;;;;;;;;20.50;99.90;;;;;;5048314;28;19955;-79
2022/08/20 11:44:00;;;;;;;;;;;20.60;99.90;;;;;;5050191;28;20490;-78
2022/08/20 11:46:26;;;;;;;;;;;20.60;99.90;;;;;;5050886;28;20430;-78
2022/08/20 11:48:51;;;;;;;;;;;20.50;99.90;;;;;;5049508;28;19924;-78
2022/08/20 11:51:17;;;;;;;;;;;20.50;99.90;;;;;;5050162;28;19924;-78
2022/08/20 11:53:42;;;;;;;;;;;20.50;99.90;;;;;;5047506;28;19925;-79
2022/08/20 11:56:08;;;;;;;;;;;20.50;99.90;;;;;;5064548;28;19951;-78
2022/08/20 11:58:33;;;;;;;;;;;20.50;99.90;;;;;;5049431;28;19920;-78
2022/08/20 12:00:59;;;;;;;;;;;20.50;99.90;;;;;;5049005;28;19925;-78
2022/08/20 12:03:24;;;;;;;;;;;20.50;99.90;;;;;;5063850;28;19986;-78
2022/08/20 12:05:50;;;;;;;;;;;20.50;99.90;;;;;;5047595;28;19921;-79
2022/08/20 12:08:16;;;;;;;;;;;20.60;99.90;;;;;;5049313;28;20696;-79
2022/08/20 12:10:41;;;;;;;;;;;20.60;99.90;;;;;;5048506;28;20003;-78
2022/08/20 12:13:07;;;;;;;;;;;20.70;99.90;;;;;;5049740;28;19928;-78
2022/08/20 12:15:33;;;;;;;;;;;20.70;99.90;;;;;;5049391;28;19924;-78
2022/08/20 12:18:00;;;;;;;;;;;20.70;99.90;;;;;;5048221;28;19925;-78
2022/08/20 12:20:25;;;;;;;;;;;20.70;99.90;;;;;;5047842;28;19931;-78
2022/08/20 12:22:52;;;;;;;;;;;20.70;99.90;;;;;;5049778;28;20139;-74
2022/08/20 12:25:18;;;;;;;;;;;20.80;99.90;;;;;;5048850;28;20337;-77
2022/08/20 12:27:44;;;;;;;;;;;20.80;99.90;;;;;;5048944;28;19925;-78
2022/08/20 12:30:12;;;;;;;;;;;20.80;99.90;;;;;;5048331;28;19968;-79
2022/08/20 12:32:38;;;;;;;;;;;20.80;99.90;;;;;;5047946;28;20019;-80
2022/08/20 12:35:04;;;;;;;;;;;20.80;99.90;;;;;;5048783;28;20011;-78
2022/08/20 12:37:30;;;;;;;;;;;20.90;99.90;;;;;;5047363;28;19925;-77
2022/08/20 12:39:58;;;;;;;;;;;20.90;99.70;;;;;;5049611;28;19979;-77
2022/08/20 12:42:24;;;;;;;;;;;21.00;99.60;;;;;;5044953;28;19925;-77
2022/08/20 12:44:49;;;;;;;;;;;21.00;99.90;;;;;;5048813;28;19928;-78
2022/08/20 12:47:21;;;;;;;;;;;21.00;99.90;;;;;;5043169;28;20294;-78
2022/08/20 12:49:50;;;;;;;;;;;21.10;99.90;;;;;;5035124;28;20280;-78
2022/08/20 12:52:16;;;;;;;;;;;21.10;98.70;;;;;;5045148;28;19972;-77
2022/08/20 12:54:42;;;;;;;;;;;21.20;99.60;;;;;;5036267;28;19963;-76
2022/08/20 12:57:14;;;;;;;;;;;21.30;99.90;;;;;;5036869;28;19925;-76
2022/08/20 12:59:40;;;;;;;;;;;21.30;99.90;;;;;;5043918;28;19932;-78
2022/08/20 13:02:05;;;;;;;;;;;21.30;98.20;;;;;;5037526;28;19924;-77
2022/08/20 13:04:31;;;;;;;;;;;21.40;99.60;;;;;;5036742;28;19925;-78
2022/08/20 13:07:00;;;;;;;;;;;21.40;96.60;;;;;;5040014;28;20311;-78
2022/08/20 13:09:26;;;;;;;;;;;21.40;99.00;;;;;;5036890;28;20319;-78
2022/08/20 13:11:51;;;;;;;;;;;21.40;98.90;;;;;;5041877;28;19925;-79
2022/08/20 13:14:17;;;;;;;;;;;21.40;99.20;;;;;;5033588;28;19933;-79
2022/08/20 13:16:42;;;;;;;;;;;21.40;99.60;;;;;;5040044;28;20406;-78
2022/08/20 13:19:08;;;;;;;;;;;21.40;99.40;;;;;;5043217;28;20275;-78
2022/08/20 13:21:33;;;;;;;;;;;21.40;98.90;;;;;;5028488;28;20054;-79
2022/08/20 13:23:59;;;;;;;;;;;21.40;99.00;;;;;;5035897;28;19966;-77
2022/08/20 13:26:24;;;;;;;;;;;21.50;99.70;;;;;;5048212;28;20016;-78
2022/08/20 13:28:50;;;;;;;;;;;21.50;97.40;;;;;;5046412;28;19964;-76
2022/08/20 13:31:15;;;;;;;;;;;21.50;97.80;;;;;;5029665;28;19925;-76
2022/08/20 13:33:41;;;;;;;;;;;21.50;97.40;;;;;;5043175;28;19925;-76
2022/08/20 13:36:06;;;;;;;;;;;21.50;95.80;;;;;;5047874;28;19920;-77
2022/08/20 13:38:32;;;;;;;;;;;21.60;95.90;;;;;;5045942;28;19925;-76
2022/08/20 13:40:57;;;;;;;;;;;21.60;96.30;;;;;;5028382;28;20623;-75
2022/08/20 13:43:23;;;;;;;;;;;21.60;97.10;;;;;;5047341;28;20019;-75
2022/08/20 13:45:48;;;;;;;;;;;21.60;97.00;;;;;;5047175;28;19980;-76
2022/08/20 13:48:14;;;;;;;;;;;21.60;98.60;;;;;;5047500;28;19925;-78
2022/08/20 13:50:41;;;;;;;;;;;21.70;99.30;;;;;;5044775;28;20416;-78
2022/08/20 13:53:07;;;;;;;;;;;21.70;99.90;;;;;;5043839;28;20023;-77
2022/08/20 13:55:33;;;;;;;;;;;21.80;98.80;;;;;;5045815;28;20015;-77
2022/08/20 13:58:02;;;;;;;;;;;21.80;99.50;;;;;;5047914;28;19932;-77
2022/08/20 14:00:29;;;;;;;;;;;21.80;99.40;;;;;;5046034;28;20314;-74
2022/08/20 14:02:55;;;;;;;;;;;21.80;99.90;;;;;;5046953;28;19939;-78
2022/08/20 14:05:22;;;;;;;;;;;21.80;99.90;;;;;;5061703;28;19925;-79
2022/08/20 14:07:48;;;;;;;;;;;21.80;99.90;;;;;;5040224;28;19933;-77
2022/08/20 14:10:16;;;;;;;;;;;21.80;99.90;;;;;;5035806;28;19925;-78
2022/08/20 14:12:41;;;;;;;;;;;21.80;99.90;;;;;;5033631;28;19925;-78
2022/08/20 14:15:07;;;;;;;;;;;21.80;99.90;;;;;;5027448;28;19971;-76
2022/08/20 14:17:34;;;;;;;;;;;21.80;99.90;;;;;;5029643;28;19925;-81
2022/08/20 14:20:02;;;;;;;;;;;21.70;99.90;;;;;;5029586;28;19925;-80
2022/08/20 14:22:28;;;;;;;;;;;21.70;99.90;;;;;;5042857;28;19932;-83